createdAt,value
2022-08-02T00:00:34.756Z,0.88
2022-08-02T00:03:02.056Z,1.20
2022-08-02T00:05:29.266Z,0.95
2022-08-02T00:07:56.522Z,0.95
2022-08-02T00:10:23.844Z,0.43
2022-08-02T00:12:51.055Z,0.57
2022-08-02T00:15:20.504Z,0.82
2022-08-02T00:17:48.577Z,0.60
2022-08-02T00:20:16.495Z,0.55
2022-08-02T00:22:43.849Z,0.87
2022-08-02T00:25:11.141Z,1.00
2022-08-02T00:27:38.333Z,0.52
2022-08-02T00:30:06.377Z,0.80
2022-08-02T00:32:34.347Z,0.63
2022-08-02T00:35:01.405Z,0.98
2022-08-02T00:37:28.650Z,0.45
2022-08-02T00:39:56.858Z,0.45
2022-08-02T00:42:24.000Z,0.40
2022-08-02T00:44:51.183Z,0.93
2022-08-02T00:47:19.566Z,2.20
2022-08-02T00:49:47.434Z,0.73
2022-08-02T00:52:14.901Z,1.48
2022-08-02T00:54:42.505Z,1.20
2022-08-02T00:57:09.707Z,0.85
2022-08-02T00:59:36.903Z,0.70
2022-08-02T01:02:04.215Z,1.58
2022-08-02T01:04:32.374Z,0.88
2022-08-02T01:07:03.440Z,0.80
2022-08-02T01:09:44.509Z,0.70
2022-08-02T01:12:12.860Z,0.80
2022-08-02T01:14:48.011Z,0.75
2022-08-02T01:17:55.497Z,0.80
2022-08-02T01:20:37.736Z,0.47
2022-08-02T01:23:45.521Z,0.52
2022-08-02T01:26:39.339Z,0.35
2022-08-02T01:29:39.019Z,0.38
2022-08-02T01:32:17.635Z,0.28
2022-08-02T01:35:20.116Z,0.45
2022-08-02T01:37:57.724Z,0.45
2022-08-02T01:40:30.710Z,0.70
2022-08-02T01:42:59.191Z,0.40
2022-08-02T01:45:34.800Z,0.40
2022-08-02T01:48:04.045Z,1.75
2022-08-02T01:50:35.544Z,0.68
2022-08-02T01:53:08.592Z,0.40
2022-08-02T01:55:58.248Z,0.68
2022-08-02T01:58:36.892Z,0.40
2022-08-02T02:01:07.226Z,0.47
2022-08-02T02:03:41.720Z,0.40
2022-08-02T02:06:11.022Z,0.55
2022-08-02T02:08:40.945Z,0.57
2022-08-02T02:12:09.610Z,0.60
2022-08-02T02:14:00.231Z,1.60
2022-08-02T02:16:29.819Z,0.70
2022-08-02T02:18:59.430Z,1.00
2022-08-02T02:21:26.631Z,0.80
2022-08-02T02:23:53.927Z,0.80
2022-08-02T02:26:29.635Z,1.00
2022-08-02T02:29:03.569Z,1.33
2022-08-02T02:31:38.019Z,1.27
2022-08-02T02:34:07.347Z,1.08
2022-08-02T02:36:36.501Z,0.65
2022-08-02T02:39:11.590Z,0.75
2022-08-02T02:41:43.403Z,0.88
2022-08-02T02:44:17.737Z,0.65
2022-08-02T02:46:47.583Z,2.63
2022-08-02T02:49:16.115Z,0.90
2022-08-02T02:51:44.988Z,1.00
2022-08-02T02:57:00.003Z,0.70
2022-08-02T03:01:59.612Z,0.57
2022-08-02T03:04:55.434Z,0.30
2022-08-02T03:07:16.421Z,0.40
2022-08-02T03:09:43.964Z,0.70
2022-08-02T03:12:11.894Z,0.60
2022-08-02T03:14:43.299Z,0.28
2022-08-02T03:17:10.577Z,0.40
2022-08-02T03:19:37.776Z,0.40
2022-08-02T03:22:04.925Z,0.50
2022-08-02T03:24:32.180Z,0.90
2022-08-02T03:26:59.457Z,2.30
2022-08-02T03:29:26.726Z,0.90
2022-08-02T03:31:55.692Z,0.55
2022-08-02T03:34:23.350Z,0.68
2022-08-02T03:36:54.694Z,1.30
2022-08-02T03:39:23.166Z,0.90
2022-08-02T03:41:50.936Z,1.00
2022-08-02T03:44:18.233Z,0.63
2022-08-02T03:46:45.627Z,0.88
2022-08-02T03:49:16.137Z,0.52
2022-08-02T03:51:45.109Z,0.40
2022-08-02T03:54:13.184Z,0.35
2022-08-02T03:56:40.444Z,0.70
2022-08-02T03:59:12.595Z,0.90
2022-08-02T04:01:39.945Z,1.55
2022-08-02T04:04:07.760Z,1.70
2022-08-02T04:06:35.150Z,1.25
2022-08-02T04:09:07.272Z,1.80
2022-08-02T04:11:34.400Z,0.93
2022-08-02T04:14:05.927Z,2.42
2022-08-02T04:17:05.268Z,3.60
2022-08-02T04:19:48.072Z,4.30
2022-08-02T04:22:22.923Z,3.05
2022-08-02T04:24:56.494Z,3.08
2022-08-02T04:27:50.404Z,1.92
2022-08-02T04:30:13.218Z,2.38
2022-08-02T04:32:40.486Z,2.53
2022-08-02T04:35:23.739Z,2.20
2022-08-02T04:38:09.391Z,9.30
2022-08-02T04:40:38.387Z,2.22
2022-08-02T04:43:05.697Z,1.65
2022-08-02T04:45:33.669Z,2.10
2022-08-02T04:48:07.896Z,2.00
2022-08-02T04:50:35.298Z,1.48
2022-08-02T04:53:02.563Z,1.98
2022-08-02T04:55:29.706Z,1.98
2022-08-02T04:57:58.254Z,2.90
2022-08-02T05:02:56.651Z,1.33
2022-08-02T05:05:24.306Z,3.03
2022-08-02T05:07:51.695Z,2.47
2022-08-02T05:10:19.257Z,2.13
2022-08-02T05:12:46.449Z,1.73
2022-08-02T05:15:17.973Z,2.70
2022-08-02T05:17:48.001Z,1.70
2022-08-02T05:20:17.483Z,1.83
2022-08-02T05:22:44.727Z,2.67
2022-08-02T05:25:12.284Z,2.70
2022-08-02T05:27:39.478Z,2.58
2022-08-02T05:30:07.936Z,2.60
2022-08-02T05:32:43.105Z,1.98
2022-08-02T05:35:10.396Z,2.50
2022-08-02T05:37:37.772Z,1.70
2022-08-02T05:40:05.986Z,2.03
2022-08-02T05:42:40.898Z,1.77
2022-08-02T05:45:09.171Z,2.13
2022-08-02T05:47:36.820Z,2.30
2022-08-02T05:50:07.690Z,2.07
2022-08-02T05:53:30.895Z,3.45
2022-08-02T05:56:19.756Z,5.55
2022-08-02T05:59:23.081Z,2.25
2022-08-02T06:01:55.537Z,1.90
2022-08-02T06:04:35.812Z,1.80
2022-08-02T06:07:06.464Z,1.80
2022-08-02T06:09:35.460Z,1.70
2022-08-02T06:12:04.746Z,1.20
2022-08-02T06:14:33.606Z,0.65
2022-08-02T06:17:04.963Z,1.10
2022-08-02T06:19:46.795Z,1.23
2022-08-02T06:22:35.999Z,1.48
2022-08-02T06:25:05.596Z,0.80
2022-08-02T06:27:34.476Z,1.25
2022-08-02T06:32:30.717Z,0.90
2022-08-02T06:34:57.901Z,2.33
2022-08-02T06:37:37.000Z,1.42
2022-08-02T06:40:27.365Z,1.00
2022-08-02T06:43:15.883Z,0.70
2022-08-02T06:45:43.272Z,0.30
2022-08-02T06:48:10.963Z,0.50
2022-08-02T06:53:07.566Z,0.68
2022-08-02T06:55:43.403Z,0.73
2022-08-02T06:58:13.528Z,1.10
2022-08-02T07:00:42.783Z,0.70
2022-08-02T07:03:10.082Z,1.02
2022-08-02T07:05:37.486Z,0.82
2022-08-02T07:08:04.846Z,0.82
2022-08-02T07:10:32.066Z,0.90
2022-08-02T07:13:00.053Z,0.50
2022-08-02T07:15:27.591Z,1.15
2022-08-02T07:17:54.761Z,0.60
2022-08-02T07:20:21.945Z,0.50
2022-08-02T07:22:49.232Z,0.77
2022-08-02T07:25:16.597Z,0.95
2022-08-02T07:27:43.807Z,0.90
2022-08-02T07:30:11.656Z,0.88
2022-08-02T07:35:07.586Z,1.85
2022-08-02T07:37:55.186Z,1.23
2022-08-02T07:40:26.229Z,1.83
2022-08-02T07:43:02.402Z,1.70
2022-08-02T07:45:32.657Z,1.07
2022-08-02T07:47:59.844Z,1.15
2022-08-02T07:50:27.917Z,1.00
2022-08-02T07:52:57.818Z,0.93
2022-08-02T07:55:39.361Z,1.67
2022-08-02T07:58:13.302Z,0.82
2022-08-02T08:00:44.411Z,0.90
2022-08-02T08:03:12.577Z,0.65
2022-08-02T08:05:40.209Z,6.38
2022-08-02T08:08:07.460Z,0.82
2022-08-02T08:10:34.713Z,0.50
2022-08-02T08:13:01.817Z,0.65
2022-08-02T08:15:28.896Z,0.82
2022-08-02T08:17:56.073Z,1.52
2022-08-02T08:20:23.384Z,0.80
2022-08-02T08:22:50.605Z,0.50
2022-08-02T08:25:17.997Z,1.35
2022-08-02T08:27:52.511Z,0.75
2022-08-02T08:30:21.699Z,0.52
2022-08-02T08:32:49.042Z,0.90
2022-08-02T08:35:16.680Z,0.88
2022-08-02T08:37:43.867Z,0.60
2022-08-02T08:40:12.314Z,0.65
2022-08-02T08:42:40.084Z,0.80
2022-08-02T08:45:08.514Z,0.88
2022-08-02T08:47:38.823Z,0.43
2022-08-02T08:50:25.435Z,1.00
2022-08-02T08:53:04.753Z,1.13
2022-08-02T08:55:34.752Z,1.42
2022-08-02T08:58:04.504Z,1.35
2022-08-02T09:00:35.183Z,0.95
2022-08-02T09:03:05.277Z,0.90
2022-08-02T09:05:35.691Z,0.90
2022-08-02T09:08:03.554Z,0.60
2022-08-02T09:10:34.761Z,0.55
2022-08-02T09:13:38.502Z,0.70
2022-08-02T09:16:14.551Z,0.80
2022-08-02T09:18:46.078Z,0.55
2022-08-02T09:21:15.871Z,0.75
2022-08-02T09:23:51.057Z,0.80
2022-08-02T09:26:21.710Z,0.52
2022-08-02T09:28:51.918Z,4.55
2022-08-02T09:31:22.857Z,0.55
2022-08-02T09:33:58.563Z,0.60
2022-08-02T09:36:36.143Z,0.75
2022-08-02T09:39:06.736Z,0.65
2022-08-02T09:41:37.287Z,0.50
2022-08-02T09:44:06.685Z,0.60
2022-08-02T09:46:43.398Z,0.70
2022-08-02T09:49:19.068Z,0.60
2022-08-02T09:51:46.134Z,0.80
2022-08-02T09:54:19.006Z,0.60
2022-08-02T09:56:52.555Z,0.68
2022-08-02T09:59:24.042Z,0.40
2022-08-02T10:02:01.317Z,0.40
2022-08-02T10:04:53.310Z,0.75
2022-08-02T10:07:22.773Z,1.55
2022-08-02T10:09:51.657Z,0.65
2022-08-02T10:12:21.650Z,0.43
2022-08-02T10:14:51.314Z,0.70
2022-08-02T10:17:20.440Z,0.63
2022-08-02T10:20:02.287Z,0.73
2022-08-02T10:22:34.424Z,0.40
2022-08-02T10:25:04.014Z,0.57
2022-08-02T10:27:43.192Z,0.50
2022-08-02T10:30:22.807Z,0.73
2022-08-02T10:32:50.681Z,0.60
2022-08-02T10:35:25.939Z,0.60
2022-08-02T10:38:02.798Z,0.38
2022-08-02T10:41:03.089Z,0.32
2022-08-02T10:43:36.191Z,0.50
2022-08-02T10:46:36.133Z,0.60
2022-08-02T10:49:39.789Z,0.90
2022-08-02T10:52:08.853Z,0.70
2022-08-02T10:54:43.345Z,0.77
2022-08-02T10:57:29.742Z,0.80
2022-08-02T11:00:23.212Z,0.85
2022-08-02T11:02:52.986Z,0.85
2022-08-02T11:05:26.901Z,0.80
2022-08-02T11:07:54.076Z,0.63
2022-08-02T11:10:29.953Z,1.13
2022-08-02T11:13:14.716Z,0.50
2022-08-02T11:16:09.126Z,0.43
2022-08-02T11:18:50.671Z,0.40
2022-08-02T11:21:22.683Z,0.43
2022-08-02T11:23:50.741Z,1.23
2022-08-02T11:26:30.129Z,0.85
2022-08-02T11:29:03.926Z,1.00
2022-08-02T11:31:40.528Z,0.77
2022-08-02T11:34:09.931Z,0.57
2022-08-02T11:36:49.626Z,0.70
2022-08-02T11:39:20.692Z,1.52
2022-08-02T11:41:52.546Z,0.63
2022-08-02T11:44:20.020Z,0.60
2022-08-02T11:47:03.547Z,0.70
2022-08-02T11:49:30.842Z,0.50
2022-08-02T11:52:06.201Z,0.73
2022-08-02T11:54:39.842Z,0.50
2022-08-02T11:57:21.149Z,0.50
2022-08-02T11:59:54.273Z,0.20
2022-08-02T12:02:28.964Z,0.80
2022-08-02T12:05:01.983Z,0.63
2022-08-02T12:07:36.513Z,0.85
2022-08-02T12:10:19.039Z,0.80
2022-08-02T12:12:58.093Z,0.82
2022-08-02T12:15:41.918Z,0.32
2022-08-02T12:18:40.602Z,0.75
2022-08-02T12:21:26.672Z,0.47
2022-08-02T12:24:00.327Z,0.70
2022-08-02T12:26:29.987Z,0.50
2022-08-02T12:29:00.812Z,0.60
2022-08-02T12:31:55.916Z,0.32
2022-08-02T12:34:32.098Z,1.20
2022-08-02T12:37:08.779Z,0.40
2022-08-02T12:39:46.116Z,0.45
2022-08-02T12:42:16.151Z,0.30
2022-08-02T12:45:00.494Z,0.38
2022-08-02T12:47:35.635Z,0.45
2022-08-02T12:50:31.990Z,0.43
2022-08-02T12:53:12.808Z,0.60
2022-08-02T12:56:01.579Z,0.20
2022-08-02T12:58:45.446Z,0.30
2022-08-02T13:01:19.540Z,0.77
2022-08-02T13:04:08.041Z,0.50
2022-08-02T13:06:42.987Z,0.60
2022-08-02T13:11:44.380Z,1.52
2022-08-02T13:14:14.049Z,0.45
2022-08-02T13:16:43.591Z,0.55
2022-08-02T13:19:12.467Z,1.00
2022-08-02T13:22:02.612Z,1.02
2022-08-02T13:24:38.179Z,0.70
2022-08-02T13:27:09.182Z,0.52
2022-08-02T13:29:39.636Z,0.60
2022-08-02T13:32:06.905Z,1.00
2022-08-02T13:34:34.319Z,0.50
2022-08-02T13:37:02.764Z,0.77
2022-08-02T13:39:30.087Z,1.60
2022-08-02T13:41:57.207Z,0.77
2022-08-02T13:44:24.394Z,0.90
2022-08-02T13:46:51.600Z,0.40
2022-08-02T13:49:20.334Z,0.40
2022-08-02T13:51:49.330Z,0.32
2022-08-02T13:54:16.781Z,0.65
2022-08-02T13:56:44.396Z,0.73
2022-08-02T13:59:54.109Z,0.90
2022-08-02T14:02:00.519Z,0.90
2022-08-02T14:04:29.093Z,0.30
2022-08-02T14:06:58.901Z,0.70
2022-08-02T14:09:26.543Z,0.30
2022-08-02T14:11:53.749Z,0.40
2022-08-02T14:14:20.884Z,0.68
2022-08-02T14:16:48.126Z,0.90
2022-08-02T14:19:16.268Z,0.93
2022-08-02T14:21:46.044Z,0.50
2022-08-02T14:24:20.782Z,0.50
2022-08-02T14:26:50.421Z,0.45
2022-08-02T14:29:17.877Z,0.95
2022-08-02T14:31:45.388Z,0.70
2022-08-02T14:34:13.386Z,0.63
2022-08-02T14:36:41.306Z,0.57
2022-08-02T14:39:09.058Z,0.50
2022-08-02T14:41:54.742Z,1.00
2022-08-02T14:44:24.161Z,0.52
2022-08-02T14:46:52.209Z,0.70
2022-08-02T14:49:25.318Z,0.60
2022-08-02T14:51:54.730Z,0.50
2022-08-02T14:56:56.052Z,0.38
2022-08-02T14:59:23.162Z,0.70
2022-08-02T15:01:50.382Z,0.70
2022-08-02T15:04:17.627Z,0.95
2022-08-02T15:06:44.867Z,0.57
2022-08-02T15:09:12.977Z,0.30
2022-08-02T15:11:47.553Z,0.40
2022-08-02T15:14:25.895Z,0.55
2022-08-02T15:16:57.211Z,0.80
2022-08-02T15:19:51.217Z,0.30
2022-08-02T15:22:15.841Z,0.50
2022-08-02T15:24:44.890Z,0.45
2022-08-02T15:27:15.394Z,0.68
2022-08-02T15:29:44.597Z,1.15
2022-08-02T15:32:13.089Z,0.73
2022-08-02T15:34:40.609Z,0.35
2022-08-02T15:37:08.087Z,0.30
2022-08-02T15:39:35.939Z,0.80
2022-08-02T15:42:03.696Z,0.47
2022-08-02T15:44:31.219Z,0.40
2022-08-02T15:46:58.552Z,0.57
2022-08-02T15:49:25.943Z,0.50
2022-08-02T15:51:53.745Z,0.93
2022-08-02T15:54:21.052Z,0.60
2022-08-02T15:56:48.393Z,0.40
2022-08-02T15:59:15.711Z,0.47
2022-08-02T16:01:47.061Z,0.50
2022-08-02T16:04:16.279Z,0.50
2022-08-02T16:06:44.405Z,0.70
2022-08-02T16:09:12.091Z,0.70
2022-08-02T16:11:39.416Z,0.70
2022-08-02T16:14:06.938Z,0.85
2022-08-02T16:16:35.773Z,0.60
2022-08-02T16:19:47.118Z,0.50
2022-08-02T16:21:53.801Z,0.63
2022-08-02T16:24:21.173Z,0.70
2022-08-02T16:26:48.753Z,0.80
2022-08-02T16:29:19.322Z,0.40
2022-08-02T16:31:47.550Z,0.77
2022-08-02T16:34:16.416Z,0.38
2022-08-02T16:36:44.497Z,0.63
2022-08-02T16:39:12.019Z,0.88
2022-08-02T16:41:51.925Z,0.80
2022-08-02T16:44:27.136Z,0.73
2022-08-02T16:47:01.294Z,0.70
2022-08-02T16:50:07.036Z,0.55
2022-08-02T16:52:19.593Z,0.75
2022-08-02T16:54:49.784Z,0.73
2022-08-02T16:57:19.553Z,0.75
2022-08-02T16:59:57.340Z,0.60
2022-08-02T17:02:26.616Z,0.65
2022-08-02T17:04:55.521Z,0.85
2022-08-02T17:08:07.385Z,0.93
2022-08-02T17:10:11.969Z,0.57
2022-08-02T17:12:40.031Z,1.48
2022-08-02T17:16:00.837Z,0.82
2022-08-02T17:17:56.569Z,1.00
2022-08-02T17:20:24.414Z,0.85
2022-08-02T17:22:52.385Z,0.80
2022-08-02T17:25:21.553Z,1.33
2022-08-02T17:27:55.695Z,0.90
2022-08-02T17:30:26.905Z,0.95
2022-08-02T17:32:57.677Z,0.73
2022-08-02T17:35:52.464Z,1.27
2022-08-02T17:38:17.844Z,0.80
2022-08-02T17:40:45.404Z,0.98
2022-08-02T17:43:14.725Z,0.60
2022-08-02T17:46:00.181Z,0.98
2022-08-02T17:48:49.174Z,0.80
2022-08-02T17:52:15.690Z,1.00
2022-08-02T17:54:04.137Z,0.85
2022-08-02T17:56:31.536Z,0.88
2022-08-02T17:59:21.796Z,0.75
2022-08-02T18:02:01.113Z,0.88
2022-08-02T18:04:31.870Z,0.90
2022-08-02T18:07:04.118Z,0.95
2022-08-02T18:09:32.009Z,1.20
2022-08-02T18:11:59.200Z,1.92
2022-08-02T18:14:26.668Z,1.90
2022-08-02T18:16:54.099Z,1.65
2022-08-02T18:19:21.306Z,0.70
2022-08-02T18:21:48.797Z,0.80
2022-08-02T18:24:16.333Z,1.02
2022-08-02T18:26:43.781Z,0.80
2022-08-02T18:29:12.161Z,2.53
2022-08-02T18:31:40.106Z,2.58
2022-08-02T18:34:24.018Z,1.80
2022-08-02T18:36:51.564Z,2.42
2022-08-02T18:39:18.846Z,2.72
2022-08-02T18:41:48.079Z,2.03
2022-08-02T18:44:18.784Z,2.30
2022-08-02T18:46:46.757Z,2.25
2022-08-02T18:49:16.797Z,2.95
2022-08-02T18:51:44.263Z,2.28
2022-08-02T18:54:11.609Z,3.40
2022-08-02T18:56:39.669Z,3.30
2022-08-02T18:59:07.460Z,2.03
2022-08-02T19:01:39.541Z,2.83
2022-08-02T19:04:13.864Z,2.20
2022-08-02T19:06:41.822Z,2.03
2022-08-02T19:09:13.793Z,2.45
2022-08-02T19:11:47.463Z,2.30
2022-08-02T19:14:24.050Z,2.70
2022-08-02T19:16:57.395Z,1.73
2022-08-02T19:19:28.663Z,2.05
2022-08-02T19:22:26.583Z,2.13
2022-08-02T19:24:51.122Z,3.60
2022-08-02T19:27:25.792Z,1.98
2022-08-02T19:30:07.561Z,2.67
2022-08-02T19:32:42.032Z,1.60
2022-08-02T19:35:30.749Z,2.20
2022-08-02T19:38:10.616Z,1.90
2022-08-02T19:40:41.396Z,1.38
2022-08-02T19:44:21.048Z,1.10
2022-08-02T19:45:57.897Z,1.58
2022-08-02T19:48:27.003Z,0.95
2022-08-02T19:51:00.567Z,1.10
2022-08-02T19:53:47.342Z,1.60
2022-08-02T19:56:20.341Z,1.17
2022-08-02T19:58:49.971Z,0.93
2022-08-02T20:01:27.028Z,2.17
2022-08-02T20:04:06.149Z,2.30
2022-08-02T20:06:33.810Z,3.05
2022-08-02T20:09:01.645Z,4.00
2022-08-02T20:14:06.690Z,3.88
2022-08-02T20:16:36.323Z,8.13
2022-08-02T20:19:08.608Z,7.88
2022-08-02T20:21:38.149Z,7.00
2022-08-02T20:24:10.236Z,8.35
2022-08-02T20:26:40.794Z,8.57
2022-08-02T20:29:17.744Z,7.55
2022-08-02T20:32:04.216Z,4.93
2022-08-02T20:34:31.853Z,4.05
2022-08-02T20:37:55.898Z,4.72
2022-08-02T20:39:48.083Z,4.43
2022-08-02T20:42:16.205Z,3.58
2022-08-02T20:44:53.422Z,2.88
2022-08-02T20:50:31.542Z,2.83
2022-08-02T20:53:00.265Z,3.83
2022-08-02T20:58:00.452Z,3.15
2022-08-02T21:00:29.498Z,3.08
2022-08-02T21:02:57.932Z,3.28
2022-08-02T21:08:15.494Z,2.92
2022-08-02T21:10:50.282Z,2.10
2022-08-02T21:13:22.406Z,3.13
2022-08-02T21:15:53.041Z,3.63
2022-08-02T21:18:22.939Z,2.70
2022-08-02T21:20:57.739Z,2.28
2022-08-02T21:23:24.921Z,2.00
2022-08-02T21:25:57.487Z,2.30
2022-08-02T21:28:43.261Z,2.25
2022-08-02T21:31:14.977Z,2.42
2022-08-02T21:33:57.105Z,1.60
2022-08-02T21:36:32.274Z,1.65
2022-08-02T21:39:09.294Z,1.40
2022-08-02T21:41:53.792Z,1.90
2022-08-02T21:44:22.261Z,2.20
2022-08-02T21:49:41.002Z,2.47
2022-08-02T21:52:12.079Z,3.17
2022-08-02T21:54:40.098Z,3.25
2022-08-02T21:57:16.340Z,2.65
2022-08-02T21:59:46.511Z,2.10
2022-08-02T22:02:18.976Z,1.70
2022-08-02T22:04:47.803Z,1.88
2022-08-02T22:07:17.734Z,2.53
2022-08-02T22:09:52.360Z,2.28
2022-08-02T22:14:54.693Z,2.50
2022-08-02T22:17:50.534Z,2.72
2022-08-02T22:20:15.548Z,4.13
2022-08-02T22:22:48.081Z,2.20
2022-08-02T22:25:26.416Z,2.40
2022-08-02T22:28:37.472Z,2.00
2022-08-02T22:33:41.918Z,5.38
2022-08-02T22:36:11.475Z,10.57
2022-08-02T22:38:38.962Z,9.63
2022-08-02T22:41:13.642Z,9.50
2022-08-02T22:43:41.936Z,18.58
2022-08-02T22:46:10.512Z,14.30
2022-08-02T22:48:43.920Z,7.70
2022-08-02T22:51:15.143Z,2.92
2022-08-02T22:53:44.367Z,2.50
2022-08-02T22:56:15.548Z,1.85
2022-08-02T22:59:01.820Z,3.45
2022-08-02T22:59:07.950Z,3.03
2022-08-02T23:01:29.984Z,1.65
2022-08-02T23:03:57.251Z,1.63
2022-08-02T23:06:24.453Z,1.38
2022-08-02T23:08:51.647Z,1.50
2022-08-02T23:11:18.837Z,1.17
2022-08-02T23:13:45.989Z,1.45
2022-08-02T23:16:37.797Z,1.45
2022-08-02T23:19:24.302Z,2.10
2022-08-02T23:22:02.450Z,1.40
2022-08-02T23:24:32.447Z,1.00
2022-08-02T23:26:59.806Z,0.85
2022-08-02T23:29:27.000Z,1.15
2022-08-02T23:31:54.220Z,0.68
2022-08-02T23:34:22.095Z,1.10
2022-08-02T23:36:49.196Z,1.10
2022-08-02T23:39:16.440Z,2.17
2022-08-02T23:41:43.598Z,0.90
2022-08-02T23:44:14.197Z,1.10
2022-08-02T23:46:46.466Z,1.00
2022-08-02T23:49:15.288Z,1.17
2022-08-02T23:51:42.701Z,1.02
2022-08-02T23:54:11.187Z,1.13
2022-08-02T23:56:39.313Z,0.90
2022-08-02T23:59:09.829Z,1.10
